Time;durP1;ratioP1;P1;durP2;ratioP2;P2;SDS_P1;SDS_P2;PMS_P1;PMS_P2;Temp;Humidity;BMP_temperature;BMP_pressure;BME280_temperature;BME280_humidity;BME280_pressure;Samples;Min_cycle;Max_cycle;Signal;HPM_P1;HPM_P2
2023/01/28 00:00:20;;;;;;;;;;;;;;;4.76;100.00;100274.31;5059975;28;19962;-73
2023/01/28 00:02:46;;;;;;;;;;;;;;;5.79;100.00;100301.78;5079674;28;19920;-73
2023/01/28 00:05:11;;;;;;;;;;;;;;;5.36;100.00;100278.41;5080287;28;19965;-73
2023/01/28 00:07:37;;;;;;;;;;;;;;;6.22;100.00;100279.09;5080706;28;19923;-74
2023/01/28 00:10:02;;;;;;;;;;;;;;;6.57;100.00;100267.31;5080071;28;19924;-73
2023/01/28 00:12:28;;;;;;;;;;;;;;;6.76;100.00;100248.66;5077687;28;19912;-73
2023/01/28 00:14:53;;;;;;;;;;;;;;;5.10;100.00;100216.81;5077493;28;20644;-74
2023/01/28 00:17:18;;;;;;;;;;;;;;;5.36;100.00;100241.75;5057803;28;19988;-73
2023/01/28 00:19:44;;;;;;;;;;;;;;;5.31;100.00;100244.25;5078546;28;19916;-73
2023/01/28 00:22:09;;;;;;;;;;;;;;;6.03;100.00;100252.53;5059224;28;19969;-74
2023/01/28 00:24:34;;;;;;;;;;;;;;;6.35;100.00;100238.25;5076449;28;19921;-74
2023/01/28 00:26:59;;;;;;;;;;;;;;;6.46;100.00;100224.66;5077957;28;19928;-74
2023/01/28 00:29:25;;;;;;;;;;;;;;;6.33;100.00;100214.34;5077259;28;19920;-73
2023/01/28 00:31:50;;;;;;;;;;;;;;;6.19;100.00;100207.47;5076363;28;20011;-73
2023/01/28 00:34:15;;;;;;;;;;;;;;;6.08;100.00;100203.97;5075572;28;20455;-73
2023/01/28 00:36:41;;;;;;;;;;;;;;;5.28;100.00;100193.16;5078339;28;19916;-73
2023/01/28 00:39:06;;;;;;;;;;;;;;;5.90;100.00;100198.72;5057516;28;19920;-74
2023/01/28 00:41:31;;;;;;;;;;;;;;;6.28;100.00;100204.94;5059316;28;19963;-73
2023/01/28 00:43:56;;;;;;;;;;;;;;;6.59;100.00;100197.41;5078006;28;19965;-74
2023/01/28 00:46:22;;;;;;;;;;;;;;;5.33;100.00;100173.63;5063107;28;19942;-74
2023/01/28 00:48:47;;;;;;;;;;;;;;;6.51;100.00;100200.78;5060531;28;19975;-73
2023/01/28 00:51:15;;;;;;;;;;;;;;;6.77;100.00;100185.50;5063205;28;19923;-74
2023/01/28 00:53:41;;;;;;;;;;;;;;;6.44;100.00;100156.41;5061463;28;20015;-73
2023/01/28 00:56:07;;;;;;;;;;;;;;;5.79;100.00;100163.75;5077662;28;20027;-73
2023/01/28 00:58:32;;;;;;;;;;;;;;;6.26;100.00;100168.25;5079097;28;19958;-74
2023/01/28 01:01:30;;;;;;;;;;;;;;;6.45;100.00;100168.34;5060473;28;20290;-74
2023/01/28 01:04:04;;;;;;;;;;;;;;;5.85;100.00;100179.09;5032292;28;20323;-73
2023/01/28 01:06:34;;;;;;;;;;;;;;;4.82;100.00;100177.41;5078197;28;19916;-73
2023/01/28 01:08:59;;;;;;;;;;;;;;;5.72;100.00;100189.25;5058136;28;19924;-74
2023/01/28 01:11:25;;;;;;;;;;;;;;;6.40;100.00;100191.34;5060271;28;19981;-73
2023/01/28 01:13:51;;;;;;;;;;;;;;;5.13;100.00;100186.25;5077667;28;19927;-74
2023/01/28 01:16:16;;;;;;;;;;;;;;;5.79;100.00;100196.97;5076784;28;19932;-74
2023/01/28 01:18:41;;;;;;;;;;;;;;;5.37;100.00;100193.25;5077850;28;19912;-74
2023/01/28 01:21:08;;;;;;;;;;;;;;;5.64;100.00;100191.75;5081243;28;19928;-73
2023/01/28 01:23:33;;;;;;;;;;;;;;;5.11;100.00;100175.16;5075006;28;19982;-73
2023/01/28 01:25:58;;;;;;;;;;;;;;;5.14;100.00;100184.53;5076887;28;20344;-74
2023/01/28 01:28:23;;;;;;;;;;;;;;;5.03;100.00;100184.44;5056221;28;20533;-73
2023/01/28 01:30:49;;;;;;;;;;;;;;;5.06;100.00;100196.34;5078415;28;19939;-73
2023/01/28 01:33:14;;;;;;;;;;;;;;;6.11;100.00;100206.53;5057894;28;19997;-73
2023/01/28 01:35:39;;;;;;;;;;;;;;;6.04;100.00;100197.13;5059293;28;19916;-73
2023/01/28 01:38:05;;;;;;;;;;;;;;;5.48;100.00;100177.16;5080887;28;20526;-73
2023/01/28 01:40:30;;;;;;;;;;;;;;;5.27;100.00;100181.25;5057400;28;20419;-73
2023/01/28 01:42:55;;;;;;;;;;;;;;;5.74;100.00;100188.41;5076429;28;19920;-74
2023/01/28 01:45:21;;;;;;;;;;;;;;;5.91;100.00;100178.31;5078312;28;19919;-74
2023/01/28 01:47:57;;;;;;;;;;;;;;;5.81;100.00;100174.81;5058235;28;19924;-74
2023/01/28 01:50:30;;;;;;;;;;;;;;;4.63;100.00;100172.94;5055600;28;19913;-73
2023/01/28 01:52:56;;;;;;;;;;;;;;;4.98;100.00;100203.97;5054911;28;19973;-73
2023/01/28 01:55:23;;;;;;;;;;;;;;;6.00;100.00;100210.78;5048564;28;20259;-73
2023/01/28 01:57:48;;;;;;;;;;;;;;;4.74;100.00;100200.28;5062332;28;19916;-74
2023/01/28 02:00:13;;;;;;;;;;;;;;;4.53;100.00;100195.81;5077084;28;20613;-75
2023/01/28 02:02:41;;;;;;;;;;;;;;;5.41;100.00;100205.19;5058965;28;20574;-74
2023/01/28 02:05:06;;;;;;;;;;;;;;;5.89;100.00;100207.25;5075413;28;20318;-74
2023/01/28 02:07:32;;;;;;;;;;;;;;;5.71;100.00;100193.50;5054032;28;19928;-74
2023/01/28 02:09:57;;;;;;;;;;;;;;;4.76;100.00;100187.56;5060105;28;19951;-74
2023/01/28 02:12:29;;;;;;;;;;;;;;;4.79;100.00;100197.81;5073518;28;20506;-74
2023/01/28 02:14:57;;;;;;;;;;;;;;;5.28;100.00;100211.03;5061274;28;19917;-74
2023/01/28 02:17:23;;;;;;;;;;;;;;;6.30;100.00;100219.47;5060191;28;19964;-74
2023/01/28 02:19:58;;;;;;;;;;;;;;;5.57;100.00;100190.84;5057204;28;19920;-74
2023/01/28 02:22:36;;;;;;;;;;;;;;;6.18;100.00;100192.09;5062225;28;20422;-74
2023/01/28 02:25:06;;;;;;;;;;;;;;;4.91;100.00;100179.22;5076070;28;19927;-74
2023/01/28 02:27:34;;;;;;;;;;;;;;;5.17;100.00;100200.72;5060385;28;20352;-73
2023/01/28 02:30:10;;;;;;;;;;;;;;;5.41;100.00;100189.88;5057576;28;19920;-73
2023/01/28 02:32:36;;;;;;;;;;;;;;;6.21;100.00;100194.69;5054691;28;20421;-73
2023/01/28 02:35:15;;;;;;;;;;;;;;;5.33;100.00;100182.97;5057585;28;19916;-74
2023/01/28 02:37:44;;;;;;;;;;;;;;;6.09;100.00;100192.94;5059883;28;19962;-74
2023/01/28 02:40:14;;;;;;;;;;;;;;;6.03;100.00;100173.28;5055504;28;19921;-73
2023/01/28 02:42:39;;;;;;;;;;;;;;;6.63;100.00;100167.53;5058110;28;19916;-73
2023/01/28 02:45:13;;;;;;;;;;;;;;;6.63;100.00;100157.31;5061447;28;20372;-73
2023/01/28 02:47:57;;;;;;;;;;;;;;;6.45;100.00;100153.84;5060290;28;19916;-73
2023/01/28 02:50:23;;;;;;;;;;;;;;;6.30;100.00;100142.72;5078210;28;19916;-73
2023/01/28 02:56:01;;;;;;;;;;;;;;;5.49;100.00;100150.75;5069820;28;19928;-73
2023/01/28 02:58:45;;;;;;;;;;;;;;;4.73;100.00;100156.91;5053423;28;20476;-74
2023/01/28 03:01:11;;;;;;;;;;;;;;;5.29;100.00;100176.13;5076707;28;20060;-74
2023/01/28 03:03:54;;;;;;;;;;;;;;;4.63;100.00;100180.59;5072837;28;20003;-74
2023/01/28 03:06:21;;;;;;;;;;;;;;;5.20;100.00;100189.66;5073928;28;19913;-74
2023/01/28 03:39:07;;;;;;;;;;;;;;;5.68;100.00;100229.28;5057815;28;20871;-74
2023/01/28 03:41:32;;;;;;;;;;;;;;;5.13;100.00;100210.88;5056185;28;19999;-73
2023/01/28 03:46:41;;;;;;;;;;;;;;;5.81;100.00;100190.16;5056466;28;20254;-74
2023/01/28 03:49:07;;;;;;;;;;;;;;;4.42;100.00;100178.66;5073142;28;19921;-73
2023/01/28 03:51:32;;;;;;;;;;;;;;;4.78;100.00;100203.75;5074097;28;19916;-74
2023/01/28 03:53:57;;;;;;;;;;;;;;;4.80;100.00;100202.06;5077076;28;20830;-74
2023/01/28 03:56:23;;;;;;;;;;;;;;;5.31;100.00;100202.53;5076512;28;20379;-74
2023/01/28 03:58:56;;;;;;;;;;;;;;;5.98;100.00;100194.56;5077185;28;20563;-74
2023/01/28 04:01:21;;;;;;;;;;;;;;;4.70;100.00;100190.91;5074824;28;19920;-74
2023/01/28 04:03:46;;;;;;;;;;;;;;;3.67;100.00;100193.78;5059333;28;20804;-73
2023/01/28 04:06:11;;;;;;;;;;;;;;;4.54;100.00;100212.84;5056985;28;19974;-74
2023/01/28 04:08:37;;;;;;;;;;;;;;;4.60;100.00;100210.34;5056725;28;19951;-74
2023/01/28 04:11:14;;;;;;;;;;;;;;;5.13;100.00;100203.22;5076053;28;20010;-74
2023/01/28 04:13:40;;;;;;;;;;;;;;;5.28;100.00;100207.63;5059609;28;19916;-74
2023/01/28 04:16:05;;;;;;;;;;;;;;;5.39;100.00;100201.78;5073673;28;19924;-74
2023/01/28 04:18:30;;;;;;;;;;;;;;;4.28;100.00;100183.59;5056266;28;19923;-74
2023/01/28 04:20:55;;;;;;;;;;;;;;;5.02;100.00;100200.59;5058418;28;20013;-74
2023/01/28 04:23:21;;;;;;;;;;;;;;;5.67;100.00;100189.22;5073903;28;19947;-74
2023/01/28 04:25:48;;;;;;;;;;;;;;;5.71;100.00;100167.94;5074743;28;19916;-74
2023/01/28 04:28:13;;;;;;;;;;;;;;;5.57;100.00;100162.75;5079226;28;19927;-74
2023/01/28 04:30:39;;;;;;;;;;;;;;;5.05;100.00;100164.03;5075806;28;19916;-74
2023/01/28 04:33:04;;;;;;;;;;;;;;;5.69;100.00;100174.75;5078062;28;19920;-74
2023/01/28 04:35:29;;;;;;;;;;;;;;;5.50;100.00;100162.69;5075755;28;19922;-74
2023/01/28 04:37:54;;;;;;;;;;;;;;;4.31;100.00;100163.22;5077108;28;20031;-74
2023/01/28 04:40:20;;;;;;;;;;;;;;;4.55;100.00;100183.91;5059575;28;19916;-74
2023/01/28 04:42:51;;;;;;;;;;;;;;;5.12;100.00;100191.31;5076581;28;19977;-74
2023/01/28 04:45:17;;;;;;;;;;;;;;;4.87;100.00;100185.13;5057897;28;19974;-74
2023/01/28 04:47:42;;;;;;;;;;;;;;;4.01;100.00;100187.50;5077054;28;19924;-74
2023/01/28 04:50:07;;;;;;;;;;;;;;;4.53;100.00;100216.22;5080429;28;19916;-73
2023/01/28 04:52:33;;;;;;;;;;;;;;;4.15;100.00;100211.50;5077369;28;19928;-74
2023/01/28 04:54:59;;;;;;;;;;;;;;;4.10;100.00;100219.91;5073829;28;19921;-74
2023/01/28 04:57:25;;;;;;;;;;;;;;;3.70;100.00;100225.28;5079536;28;20462;-74
2023/01/28 04:59:50;;;;;;;;;;;;;;;4.11;100.00;100235.22;5078929;28;19968;-74
2023/01/28 05:02:15;;;;;;;;;;;;;;;4.93;100.00;100237.09;5057749;28;19969;-74
2023/01/28 05:04:40;;;;;;;;;;;;;;;5.77;100.00;100228.47;5058607;28;19912;-74
2023/01/28 05:07:06;;;;;;;;;;;;;;;5.66;100.00;100205.41;5080101;28;19927;-74
2023/01/28 05:09:31;;;;;;;;;;;;;;;5.20;100.00;100192.22;5061911;28;19920;-74
2023/01/28 05:11:56;;;;;;;;;;;;;;;5.41;100.00;100187.31;5056529;28;20012;-73
2023/01/28 05:14:21;;;;;;;;;;;;;;;5.00;100.00;100186.97;5075326;28;19944;-75
2023/01/28 05:16:47;;;;;;;;;;;;;;;5.63;100.00;100190.03;5075074;28;19923;-74
2023/01/28 05:19:12;;;;;;;;;;;;;;;5.43;100.00;100174.56;5059121;28;19921;-74
2023/01/28 05:21:37;;;;;;;;;;;;;;;5.61;100.00;100176.38;5073576;28;19916;-74
2023/01/28 05:24:02;;;;;;;;;;;;;;;3.50;100.00;100163.00;5071289;28;19959;-74
2023/01/28 05:26:28;;;;;;;;;;;;;;;3.48;100.00;100177.38;5078364;28;19923;-74
2023/01/28 05:28:53;;;;;;;;;;;;;;;4.52;100.00;100204.31;5072454;28;20001;-74
2023/01/28 05:31:18;;;;;;;;;;;;;;;3.66;100.00;100205.69;5073816;28;20037;-73
2023/01/28 05:33:43;;;;;;;;;;;;;;;3.95;100.00;100215.47;5074971;28;19923;-74
2023/01/28 05:36:09;;;;;;;;;;;;;;;3.44;100.00;100216.34;5055163;28;19916;-73
2023/01/28 05:38:34;;;;;;;;;;;;;;;4.06;100.00;100234.31;5073146;28;20382;-74
2023/01/28 05:40:59;;;;;;;;;;;;;;;4.50;100.00;100244.25;5075543;28;20385;-74
2023/01/28 05:43:24;;;;;;;;;;;;;;;4.43;100.00;100234.81;5059666;28;20011;-74
2023/01/28 05:45:50;;;;;;;;;;;;;;;4.48;100.00;100240.81;5057306;28;19974;-74
2023/01/28 05:48:15;;;;;;;;;;;;;;;3.28;100.00;100233.91;5056729;28;19941;-74
2023/01/28 05:50:40;;;;;;;;;;;;;;;3.72;100.00;100249.09;5076819;28;20880;-73
2023/01/28 05:53:06;;;;;;;;;;;;;;;4.16;100.00;100254.00;5075520;28;20015;-75
2023/01/28 05:55:31;;;;;;;;;;;;;;;4.68;100.00;100248.72;5054909;28;20371;-74
2023/01/28 05:57:56;;;;;;;;;;;;;;;4.61;100.00;100240.13;5076550;28;19965;-74
2023/01/28 06:00:22;;;;;;;;;;;;;;;5.05;100.00;100236.34;5058081;28;19927;-74
2023/01/28 06:02:47;;;;;;;;;;;;;;;3.86;100.00;100221.28;5073957;28;19916;-74
2023/01/28 06:05:12;;;;;;;;;;;;;;;4.82;100.00;100228.47;5075273;28;19923;-74
2023/01/28 06:07:37;;;;;;;;;;;;;;;5.34;100.00;100218.75;5058763;28;19920;-74
2023/01/28 06:10:03;;;;;;;;;;;;;;;4.99;100.00;100198.84;5072344;28;19912;-74
2023/01/28 06:12:28;;;;;;;;;;;;;;;5.37;100.00;100198.34;5071777;28;20007;-73
2023/01/28 06:14:53;;;;;;;;;;;;;;;5.07;100.00;100187.88;5073266;28;19928;-74
2023/01/28 06:17:18;;;;;;;;;;;;;;;4.33;100.00;100184.50;5074148;28;20084;-74
2023/01/28 06:19:44;;;;;;;;;;;;;;;3.74;100.00;100205.78;5071935;28;19920;-74
2023/01/28 06:22:09;;;;;;;;;;;;;;;4.00;100.00;100216.38;5078606;28;19930;-74
2023/01/28 06:24:34;;;;;;;;;;;;;;;4.03;100.00;100224.06;5073609;28;19927;-74
2023/01/28 06:27:00;;;;;;;;;;;;;;;4.82;100.00;100215.69;5073202;28;19939;-74
2023/01/28 06:29:25;;;;;;;;;;;;;;;5.67;100.00;100217.31;5071954;28;19963;-74
2023/01/28 06:31:50;;;;;;;;;;;;;;;5.83;100.00;100203.78;5053503;28;20156;-74
2023/01/28 06:34:16;;;;;;;;;;;;;;;5.74;100.00;100188.41;5053411;28;19920;-74
2023/01/28 06:36:41;;;;;;;;;;;;;;;5.85;100.00;100178.25;5055654;28;19924;-74
2023/01/28 06:39:06;;;;;;;;;;;;;;;5.57;100.00;100180.63;5072124;28;19924;-74
2023/01/28 06:41:31;;;;;;;;;;;;;;;5.32;100.00;100169.38;5054481;28;19966;-74
2023/01/28 06:43:57;;;;;;;;;;;;;;;5.58;100.00;100171.25;5068741;28;19955;-74
2023/01/28 06:46:23;;;;;;;;;;;;;;;5.27;100.00;100173.59;5073854;28;19966;-74
2023/01/28 06:48:48;;;;;;;;;;;;;;;5.58;100.00;100177.22;5069831;28;19924;-74
2023/01/28 06:51:14;;;;;;;;;;;;;;;5.57;100.00;100169.56;5069216;28;19943;-73
2023/01/28 06:53:39;;;;;;;;;;;;;;;5.95;100.00;100171.50;5066942;28;19922;-73
2023/01/28 06:56:05;;;;;;;;;;;;;;;5.33;100.00;100155.75;5068393;28;20015;-74
2023/01/28 06:58:30;;;;;;;;;;;;;;;5.16;100.00;100159.88;5068865;28;19999;-73
2023/01/28 07:00:55;;;;;;;;;;;;;;;5.32;100.00;100164.25;5067010;28;19981;-73
2023/01/28 07:03:21;;;;;;;;;;;;;;;5.52;100.00;100158.44;5066401;28;20378;-73
2023/01/28 07:05:46;;;;;;;;;;;;;;;5.19;100.00;100162.44;5048900;28;20454;-75
2023/01/28 07:08:11;;;;;;;;;;;;;;;4.72;100.00;100170.50;5066381;28;19943;-72
2023/01/28 07:10:36;;;;;;;;;;;;;;;5.17;100.00;100161.56;5050413;28;19943;-72
2023/01/28 07:13:02;;;;;;;;;;;;;;;5.34;100.00;100167.69;5065792;28;19931;-75
2023/01/28 07:15:27;;;;;;;;;;;;;;;4.77;100.00;100168.88;5067658;28;19927;-75
2023/01/28 07:17:53;;;;;;;;;;;;;;;5.45;100.00;100163.50;5049325;28;19939;-75
2023/01/28 07:20:18;;;;;;;;;;;;;;;5.57;100.00;100160.19;5051412;28;19920;-75
2023/01/28 07:22:45;;;;;;;;;;;;;;;5.94;100.00;100157.00;5067214;28;20200;-75
2023/01/28 07:25:11;;;;;;;;;;;;;;;5.96;100.00;100148.53;5049149;28;20530;-76
2023/01/28 07:27:36;;;;;;;;;;;;;;;5.84;100.00;100136.50;5054772;28;20402;-76
2023/01/28 07:30:01;;;;;;;;;;;;;;;5.66;100.00;100128.72;5043873;28;19917;-76
2023/01/28 07:32:27;;;;;;;;;;;;;;;5.34;100.00;100131.94;5072995;28;21126;-76
2023/01/28 07:34:53;;;;;;;;;;;;;;;5.85;100.00;100140.75;5054404;28;19916;-76
2023/01/28 07:37:18;;;;;;;;;;;;;;;5.48;100.00;100138.84;5054311;28;19922;-76
2023/01/28 07:39:43;;;;;;;;;;;;;;;5.22;100.00;100147.13;5053052;28;19920;-76
2023/01/28 07:42:08;;;;;;;;;;;;;;;5.25;100.00;100144.63;5072004;28;19916;-77
2023/01/28 07:44:34;;;;;;;;;;;;;;;5.79;100.00;100158.63;5073288;28;19923;-77
2023/01/28 07:46:59;;;;;;;;;;;;;;;5.89;100.00;100151.00;5054118;28;19916;-77
2023/01/28 07:49:25;;;;;;;;;;;;;;;5.86;100.00;100134.81;5070289;28;19938;-76
2023/01/28 07:51:50;;;;;;;;;;;;;;;6.06;100.00;100128.97;5072200;28;19963;-76
2023/01/28 07:54:15;;;;;;;;;;;;;;;6.21;100.00;100144.38;5071177;28;19923;-76
2023/01/28 07:56:41;;;;;;;;;;;;;;;6.16;100.00;100140.06;5053038;28;19966;-76
2023/01/28 07:59:06;;;;;;;;;;;;;;;4.88;100.00;100136.66;5072335;28;19999;-76
2023/01/28 08:01:31;;;;;;;;;;;;;;;4.44;100.00;100170.19;5074076;28;19959;-76
2023/01/28 08:03:56;;;;;;;;;;;;;;;4.58;100.00;100170.34;5071882;28;19926;-74
2023/01/28 08:06:22;;;;;;;;;;;;;;;4.88;100.00;100176.59;5070597;28;20583;-74
2023/01/28 08:08:47;;;;;;;;;;;;;;;5.01;100.00;100181.84;5070917;28;20367;-74
2023/01/28 08:11:12;;;;;;;;;;;;;;;5.47;100.00;100181.38;5069232;28;19920;-75
2023/01/28 08:13:38;;;;;;;;;;;;;;;5.56;100.00;100180.59;5069604;28;20022;-74
2023/01/28 08:16:03;;;;;;;;;;;;;;;5.55;100.00;100191.69;5068688;28;19921;-74
2023/01/28 08:18:28;;;;;;;;;;;;;;;5.00;100.00;100187.81;5070043;28;19920;-75
2023/01/28 08:20:54;;;;;;;;;;;;;;;4.48;100.00;100201.69;5068960;28;19967;-74
2023/01/28 08:23:19;;;;;;;;;;;;;;;3.70;100.00;100217.63;5070473;28;19920;-75
2023/01/28 08:25:45;;;;;;;;;;;;;;;3.41;100.00;100241.78;5050672;28;19926;-74
2023/01/28 08:28:10;;;;;;;;;;;;;;;3.70;100.00;100248.22;5068502;28;19924;-71
2023/01/28 08:30:37;;;;;;;;;;;;;;;3.42;100.00;100258.75;5049681;28;19928;-72
2023/01/28 08:33:03;;;;;;;;;;;;;;;3.42;100.00;100284.22;5050517;28;20044;-72
2023/01/28 08:35:28;;;;;;;;;;;;;;;3.54;100.00;100290.41;5069087;28;19960;-72
2023/01/28 08:37:53;;;;;;;;;;;;;;;3.85;100.00;100287.50;5045848;28;20921;-72
2023/01/28 08:40:19;;;;;;;;;;;;;;;4.41;100.00;100284.94;5071476;28;19920;-71
2023/01/28 08:42:48;;;;;;;;;;;;;;;4.18;100.00;100287.16;5050001;28;20401;-72
2023/01/28 08:45:13;;;;;;;;;;;;;;;5.01;100.00;100278.88;5067748;28;20012;-72
2023/01/28 08:47:51;;;;;;;;;;;;;;;5.30;100.00;100275.78;5048944;28;20011;-72
2023/01/28 08:50:17;;;;;;;;;;;;;;;4.80;100.00;100268.41;5068161;28;19958;-72
2023/01/28 08:52:43;;;;;;;;;;;;;;;4.94;100.00;100279.63;5068131;28;19919;-72
2023/01/28 08:55:08;;;;;;;;;;;;;;;4.46;100.00;100272.25;5050940;28;20335;-72
2023/01/28 08:57:34;;;;;;;;;;;;;;;4.97;100.00;100287.34;5069729;28;20009;-71
2023/01/28 08:59:59;;;;;;;;;;;;;;;5.07;100.00;100277.25;5069750;28;19947;-72
2023/01/28 09:02:24;;;;;;;;;;;;;;;5.22;100.00;100274.81;5068687;28;19923;-72
2023/01/28 09:04:49;;;;;;;;;;;;;;;5.11;100.00;100267.06;5067192;28;19920;-71
2023/01/28 09:07:14;;;;;;;;;;;;;;;4.99;100.00;100272.88;5067601;28;19953;-72
2023/01/28 09:09:40;;;;;;;;;;;;;;;4.19;100.00;100271.03;5069583;28;19916;-71
2023/01/28 09:12:07;;;;;;;;;;;;;;;3.87;100.00;100293.47;5067920;28;19924;-71
2023/01/28 09:14:32;;;;;;;;;;;;;;;4.30;100.00;100320.47;5068543;28;20958;-71
2023/01/28 09:16:57;;;;;;;;;;;;;;;4.78;100.00;100313.47;5051050;28;19967;-71
2023/01/28 09:19:22;;;;;;;;;;;;;;;3.43;100.00;100308.88;5067466;28;19916;-71
2023/01/28 09:21:48;;;;;;;;;;;;;;;4.05;100.00;100329.44;5067912;28;19916;-71
2023/01/28 09:24:13;;;;;;;;;;;;;;;2.71;100.00;100337.19;5065472;28;19927;-71
2023/01/28 09:26:38;;;;;;;;;;;;;;;2.69;100.00;100353.22;5067651;28;19913;-71
2023/01/28 09:29:03;;;;;;;;;;;;;;;2.38;100.00;100367.78;5066245;28;19969;-71
2023/01/28 09:31:29;;;;;;;;;;;;;;;2.92;100.00;100380.03;5067462;28;19916;-72
2023/01/28 09:33:56;;;;;;;;;;;;;;;3.85;100.00;100391.97;5068696;28;20278;-71
2023/01/28 09:36:21;;;;;;;;;;;;;;;3.38;100.00;100387.72;5050632;28;19920;-71
2023/01/28 09:38:46;;;;;;;;;;;;;;;4.13;100.00;100393.31;5065453;28;19951;-72
2023/01/28 09:41:35;;;;;;;;;;;;;;;3.25;100.00;100381.53;5050061;28;20258;-72
2023/01/28 09:44:03;;;;;;;;;;;;;;;4.21;100.00;100391.75;5055280;28;20519;-71
2023/01/28 09:46:32;;;;;;;;;;;;;;;4.01;100.00;100378.66;5067342;28;19959;-71
2023/01/28 09:48:57;;;;;;;;;;;;;;;3.52;100.00;100378.66;5046087;28;19968;-72
2023/01/28 09:51:28;;;;;;;;;;;;;;;3.37;100.00;100387.69;5047230;28;20013;-72
2023/01/28 09:53:54;;;;;;;;;;;;;;;3.61;100.00;100398.34;5047296;28;20038;-71
2023/01/28 09:56:33;;;;;;;;;;;;;;;3.70;100.00;100403.63;5042372;28;19999;-72
2023/01/28 09:59:01;;;;;;;;;;;;;;;3.65;100.00;100410.31;5046881;28;19920;-71
2023/01/28 10:01:38;;;;;;;;;;;;;;;3.74;100.00;100400.31;5046413;28;19920;-71
2023/01/28 10:04:21;;;;;;;;;;;;;;;4.66;100.00;100390.72;5046274;28;19924;-71
2023/01/28 10:06:56;;;;;;;;;;;;;;;4.69;100.00;100357.59;5064138;28;19916;-72
2023/01/28 10:09:33;;;;;;;;;;;;;;;3.49;100.00;100362.44;5048520;28;19924;-72
2023/01/28 10:12:01;;;;;;;;;;;;;;;3.07;100.00;100373.53;5048356;28;19923;-72
2023/01/28 10:14:26;;;;;;;;;;;;;;;4.14;100.00;100383.13;5064286;28;20156;-71
2023/01/28 10:16:58;;;;;;;;;;;;;;;4.44;100.00;100363.19;5064784;28;19920;-71
2023/01/28 10:19:23;;;;;;;;;;;;;;;5.60;100.00;100351.00;5065949;28;19917;-71
2023/01/28 10:21:48;;;;;;;;;;;;;;;5.34;100.00;100320.09;5065839;28;19973;-72
2023/01/28 10:24:17;;;;;;;;;;;;;;;5.09;100.00;100298.53;5065287;28;19916;-71
2023/01/28 10:26:43;;;;;;;;;;;;;;;5.45;100.00;100288.69;5044564;28;20092;-71
2023/01/28 10:29:16;;;;;;;;;;;;;;;4.78;100.00;100278.59;5048476;28;19927;-71
2023/01/28 10:31:43;;;;;;;;;;;;;;;4.72;100.00;100288.75;5047430;28;20335;-71
2023/01/28 10:34:09;;;;;;;;;;;;;;;3.96;100.00;100286.81;5047432;28;20030;-71
2023/01/28 10:36:34;;;;;;;;;;;;;;;4.84;100.00;100287.19;5046799;28;19975;-71
2023/01/28 10:38:59;;;;;;;;;;;;;;;5.98;100.00;100269.56;5066011;28;19920;-71
2023/01/28 10:41:25;;;;;;;;;;;;;;;4.84;100.00;100254.88;5045091;28;19968;-72
2023/01/28 10:43:50;;;;;;;;;;;;;;;4.70;100.00;100264.03;5064856;28;20019;-71
2023/01/28 10:46:17;;;;;;;;;;;;;;;4.96;100.00;100257.53;5047939;28;19920;-71
2023/01/28 10:48:47;;;;;;;;;;;;;;;4.10;100.00;100276.84;5045817;28;19920;-71
2023/01/28 10:51:14;;;;;;;;;;;;;;;5.00;100.00;100246.53;5046215;28;19923;-71
2023/01/28 10:53:39;;;;;;;;;;;;;;;6.07;100.00;100246.63;5062907;28;20720;-72
2023/01/28 10:56:06;;;;;;;;;;;;;;;5.97;100.00;100226.94;5067870;28;19924;-72
2023/01/28 10:58:33;;;;;;;;;;;;;;;6.37;100.00;100216.09;5064122;28;19912;-72
2023/01/28 11:00:59;;;;;;;;;;;;;;;4.12;100.00;100225.88;5065116;28;19923;-69
2023/01/28 11:03:29;;;;;;;;;;;;;;;4.98;100.00;100244.81;5052015;28;20003;-70
2023/01/28 11:05:55;;;;;;;;;;;;;;;3.91;100.00;100257.88;5069348;28;19923;-70
2023/01/28 11:08:20;;;;;;;;;;;;;;;4.42;100.00;100258.56;5051406;28;20382;-70
2023/01/28 11:10:46;;;;;;;;;;;;;;;5.43;100.00;100253.75;5067906;28;19921;-70
2023/01/28 11:13:16;;;;;;;;;;;;;;;5.69;100.00;100237.78;5069007;28;19916;-70
2023/01/28 11:16:11;;;;;;;;;;;;;;;6.10;100.00;100240.66;5070515;28;20962;-70
2023/01/28 11:18:39;;;;;;;;;;;;;;;3.76;100.00;100249.97;5051827;28;19961;-70
2023/01/28 11:21:05;;;;;;;;;;;;;;;2.98;100.00;100291.91;5054463;28;19916;-70
2023/01/28 11:23:32;;;;;;;;;;;;;;;3.49;100.00;100301.31;5072426;28;19999;-71
2023/01/28 11:25:59;;;;;;;;;;;;;;;2.64;100.00;100312.41;5057335;28;19916;-72
2023/01/28 11:28:24;;;;;;;;;;;;;;;3.42;100.00;100324.97;5069646;28;20028;-72
2023/01/28 11:30:50;;;;;;;;;;;;;;;5.01;100.00;100312.06;5072505;28;20572;-72
2023/01/28 11:33:20;;;;;;;;;;;;;;;4.97;100.00;100305.22;5052578;28;20375;-72
2023/01/28 11:35:55;;;;;;;;;;;;;;;4.61;100.00;100291.16;5054066;28;19920;-72
2023/01/28 11:38:21;;;;;;;;;;;;;;;4.76;100.00;100269.22;5054896;28;19920;-72
2023/01/28 11:40:51;;;;;;;;;;;;;;;3.73;100.00;100271.19;5052895;28;19920;-72
2023/01/28 11:43:17;;;;;;;;;;;;;;;4.78;100.00;100267.53;5071182;28;19959;-72
2023/01/28 11:45:44;;;;;;;;;;;;;;;4.35;100.00;100267.00;5053827;28;20620;-72
2023/01/28 11:48:15;;;;;;;;;;;;;;;4.49;100.00;100278.22;5052223;28;19917;-72
2023/01/28 11:50:59;;;;;;;;;;;;;;;3.49;100.00;100286.03;5072054;28;19963;-72
2023/01/28 11:53:27;;;;;;;;;;;;;;;5.06;100.00;100288.28;5055514;28;19920;-72
2023/01/28 11:56:04;;;;;;;;;;;;;;;4.03;100.00;100275.03;5072701;28;19965;-72
2023/01/28 11:58:40;;;;;;;;;;;;;;;3.43;100.00;100288.50;5073559;28;19951;-72
2023/01/28 12:01:08;;;;;;;;;;;;;;;2.53;100.00;100290.13;5053432;28;19912;-72
2023/01/28 12:03:42;;;;;;;;;;;;;;;2.79;100.00;100309.34;5074534;28;20370;-72
2023/01/28 12:06:13;;;;;;;;;;;;;;;2.34;100.00;100316.84;5072952;28;19917;-71
2023/01/28 12:08:53;;;;;;;;;;;;;;;3.18;100.00;100320.28;5071629;28;19999;-72
2023/01/28 12:14:27;;;;;;;;;;;;;;;4.52;100.00;100259.56;5069573;28;20546;-72
2023/01/28 12:16:55;;;;;;;;;;;;;;;5.81;100.00;100215.72;5053540;28;20089;-72
2023/01/28 12:19:44;;;;;;;;;;;;;;;5.74;100.00;100198.63;5072252;28;19927;-72
2023/01/28 12:22:21;;;;;;;;;;;;;;;5.97;100.00;100195.41;5060873;28;20007;-72
2023/01/28 12:25:02;;;;;;;;;;;;;;;4.85;100.00;100197.00;5072160;28;19994;-72
2023/01/28 12:27:31;;;;;;;;;;;;;;;5.64;100.00;100187.50;5072091;28;20424;-72
2023/01/28 12:30:15;;;;;;;;;;;;;;;5.46;100.00;100174.59;5054113;28;19920;-72
2023/01/28 12:32:45;;;;;;;;;;;;;;;3.33;100.00;100199.22;5070861;28;20725;-72
2023/01/28 12:35:13;;;;;;;;;;;;;;;3.40;100.00;100227.31;5052840;28;20471;-71
2023/01/28 12:37:54;;;;;;;;;;;;;;;3.85;100.00;100229.75;5071281;28;19923;-71
2023/01/28 12:40:38;;;;;;;;;;;;;;;3.07;100.00;100221.66;5074216;28;19920;-72
2023/01/28 12:43:11;;;;;;;;;;;;;;;4.64;100.00;100218.06;5072245;28;19920;-72
2023/01/28 12:45:39;;;;;;;;;;;;;;;6.26;100.00;100183.63;5053782;28;19920;-71
2023/01/28 12:48:10;;;;;;;;;;;;;;;7.03;100.00;100132.63;5054703;28;19920;-72
2023/01/28 12:50:37;;;;;;;;;;;;;;;7.48;100.00;100107.84;5072375;28;19931;-72
2023/01/28 12:53:08;;;;;;;;;;;;;;;6.63;100.00;100106.97;5054857;28;20359;-72
2023/01/28 12:55:46;;;;;;;;;;;;;;;5.24;100.00;100096.94;5052377;28;19923;-72
2023/01/28 12:58:17;;;;;;;;;;;;;;;5.39;100.00;100088.53;5054027;28;20442;-72
2023/01/28 13:00:44;;;;;;;;;;;;;;;5.18;100.00;100090.09;5052987;28;19916;-72
2023/01/28 13:03:28;;;;;;;;;;;;;;;5.93;100.00;100078.56;5053179;28;19927;-71
2023/01/28 13:06:01;;;;;;;;;;;;;;;4.24;100.00;100072.19;5071049;28;19928;-72
2023/01/28 13:08:26;;;;;;;;;;;;;;;4.69;100.00;100073.50;5052164;28;19928;-71
2023/01/28 13:10:52;;;;;;;;;;;;;;;5.93;100.00;100060.69;5073223;28;19927;-72
2023/01/28 13:13:27;;;;;;;;;;;;;;;5.94;100.00;100036.84;5052202;28;20128;-72
2023/01/28 13:15:52;;;;;;;;;;;;;;;5.12;100.00;100040.66;5070482;28;19931;-72